Weather History for KAQP - November, 2013

Change the Weather History Date:

Wednesday, November 6, 2013

  Actual Average (KBBB) Record (KBBB)
Temperature  
Mean Temperature 32 °F -  
Max Temperature 46 °F 45 °F - (-1)
Min Temperature 19 °F 26 °F - (-1)
Degree Days  
Heating Degree Days 32    
Moisture  
Dew Point 23 °F    
Average Humidity 70    
Maximum Humidity 100    
Minimum Humidity 37    
Precipitation  
Precipitation 0.00 in - - ()
Sea Level Pressure  
Sea Level Pressure 30.11 in    
Wind  
Wind Speed 6 mph (West)    
Max Wind Speed 16 mph    
Max Gust Speed 20 mph    
Visibility 10 miles    
Events      
Averages and records for this station are not official NWS values.
T = Trace of Precipitation, MM = Missing Value Source: NWS Daily Summary

Daily Weather History Graph

Daily Weather History Graph

Search for Another Location

Airport or City:

Trip Planner

Search our weather history database for the weather conditions in past years. The results will help you decide how hot, cold, wet, or windy it might be!

Date:

Astronomy

Nov. 06, 2013 Rise Set
Actual Time 7:10 AM CST 5:04 PM CST
Civil Twilight 6:39 AM CST 5:35 PM CST
Nautical Twilight 6:03 AM CST 6:10 PM CST
Astronomical Twilight 5:29 AM CST 6:45 PM CST
Moon 10:30 AM CST (11/6) 8:06 PM CST (11/6)
Length of Visible Light 10h 56m
Length of Day
9h 54m
Waxing Crescent, 14% of the Moon is Illuminated
Nov 6
Waxing Crescent
Nov 9
First Quarter
Nov 17
Full
Nov 25
Last Quarter
Dec 2
New

Hourly Weather History & Observations

Time (CST) Temp. Windchill Dew Point Humidity Pressure Visibility Wind Dir Wind Speed Gust Speed Precip Events Conditions
12:13 AM 33.8 °F 28.6 °F 26.6 °F 75% 30.10 in 10.0 mi NW 5.8 mph - N/A   Overcast
12:33 AM 33.8 °F - 26.6 °F 75% 30.10 in 10.0 mi Calm Calm - N/A   Overcast
12:54 AM 32.0 °F 28.7 °F 26.6 °F 80% 30.09 in 10.0 mi West 3.5 mph - N/A   Overcast
1:13 AM 32.0 °F 27.5 °F 26.6 °F 80% 30.09 in 10.0 mi WNW 4.6 mph - N/A   Mostly Cloudy
1:33 AM 32.0 °F 28.7 °F 26.6 °F 80% 30.09 in 10.0 mi WNW 3.5 mph - N/A   Clear
1:53 AM 30.2 °F 25.4 °F 26.6 °F 86% 30.10 in 10.0 mi West 4.6 mph - N/A   Scattered Clouds
2:13 AM 30.2 °F 26.7 °F 26.6 °F 86% 30.10 in 10.0 mi NW 3.5 mph - N/A   Scattered Clouds
2:33 AM 30.2 °F 23.4 °F 24.8 °F 80% 30.10 in 10.0 mi NW 6.9 mph - N/A   Clear
2:53 AM 30.2 °F 24.3 °F 24.8 °F 80% 30.10 in 10.0 mi NW 5.8 mph - N/A   Clear
3:13 AM 30.2 °F 24.3 °F 24.8 °F 80% 30.10 in 10.0 mi NW 5.8 mph - N/A   Clear
3:33 AM 28.4 °F - 24.8 °F 86% 30.10 in 10.0 mi Calm Calm - N/A   Clear
3:53 AM 26.6 °F 20.0 °F 21.2 °F 80% 30.10 in 10.0 mi WNW 5.8 mph - N/A   Clear
4:13 AM 26.6 °F 19.1 °F 21.2 °F 80% 30.10 in 10.0 mi WNW 6.9 mph - N/A   Clear
4:34 AM 24.8 °F 16.9 °F 21.2 °F 86% 30.10 in 10.0 mi WNW 6.9 mph - N/A   Clear
4:53 AM 24.8 °F 17.9 °F 19.4 °F 80% 30.10 in 10.0 mi West 5.8 mph - N/A   Clear
5:13 AM 23.0 °F 15.8 °F 19.4 °F 86% 30.11 in 10.0 mi West 5.8 mph - N/A   Clear
5:33 AM 21.2 °F 13.6 °F 19.4 °F 93% 30.11 in 10.0 mi West 5.8 mph - N/A   Clear
5:53 AM 21.2 °F 12.6 °F 19.4 °F 93% 30.11 in 10.0 mi WNW 6.9 mph - N/A   Clear
6:13 AM 21.2 °F 13.6 °F 19.4 °F 93% 30.11 in 10.0 mi West 5.8 mph - N/A   Clear
6:33 AM 21.2 °F 13.6 °F 19.4 °F 93% 30.11 in 7.0 mi WNW 5.8 mph - N/A   Clear
6:53 AM 21.2 °F 14.9 °F 19.4 °F 93% 30.11 in 10.0 mi West 4.6 mph - N/A   Clear
7:13 AM 19.4 °F 12.8 °F 17.6 °F 93% 30.11 in 7.0 mi West 4.6 mph - N/A   Clear
7:34 AM 21.2 °F 14.9 °F 19.4 °F 93% 30.12 in 7.0 mi West 4.6 mph - N/A   Clear
7:53 AM 24.8 °F 17.9 °F 21.2 °F 86% 30.12 in 7.0 mi West 5.8 mph - N/A   Clear
8:13 AM 26.6 °F 20.0 °F 23.0 °F 86% 30.13 in 7.0 mi West 5.8 mph - N/A   Clear
8:34 AM 28.4 °F 21.2 °F 24.8 °F 86% 30.13 in 10.0 mi West 6.9 mph - N/A   Clear
8:53 AM 30.2 °F 25.4 °F 24.8 °F 80% 30.13 in 10.0 mi West 4.6 mph - N/A   Clear
9:14 AM 33.8 °F 27.7 °F 24.8 °F 70% 30.13 in 10.0 mi WNW 6.9 mph - N/A   Clear
9:33 AM 35.6 °F 29.9 °F 23.0 °F 60% 30.13 in 10.0 mi West 6.9 mph - N/A   Clear
9:53 AM 35.6 °F 30.7 °F 23.0 °F 60% 30.13 in 10.0 mi West 5.8 mph - N/A   Clear
10:13 AM 37.4 °F 32.8 °F 21.2 °F 52% 30.12 in 10.0 mi West 5.8 mph - N/A   Clear
10:34 AM 39.2 °F 33.6 °F 19.4 °F 45% 30.12 in 10.0 mi West 8.1 mph - N/A   Clear
10:53 AM 39.2 °F 33.6 °F 19.4 °F 45% 30.13 in 10.0 mi West 8.1 mph - N/A   Clear
11:14 AM 41.0 °F 36.4 °F 21.2 °F 45% 30.12 in 10.0 mi West 6.9 mph - N/A   Clear
11:33 AM 42.8 °F 37.5 °F 21.2 °F 42% 30.12 in 10.0 mi West 9.2 mph - N/A   Clear
11:53 AM 42.8 °F 38.0 °F 21.2 °F 42% 30.11 in 10.0 mi WSW 8.1 mph - N/A   Clear
12:13 PM 44.6 °F 38.4 °F 21.2 °F 39% 30.10 in 10.0 mi WSW 12.7 mph - N/A   Clear
12:34 PM 44.6 °F 39.2 °F 21.2 °F 39% 30.09 in 10.0 mi WSW 10.4 mph - N/A   Clear
12:53 PM 46.4 °F 41.9 °F 21.2 °F 37% 30.09 in 10.0 mi West 9.2 mph - N/A   Clear
1:13 PM 44.6 °F 39.2 °F 21.2 °F 39% 30.09 in 10.0 mi WNW 10.4 mph - N/A   Scattered Clouds
1:33 PM 46.4 °F 41.9 °F 21.2 °F 37% 30.09 in 10.0 mi West 9.2 mph - N/A   Mostly Cloudy
1:54 PM 46.4 °F 41.9 °F 21.2 °F 37% 30.09 in 10.0 mi West 9.2 mph - N/A   Mostly Cloudy
2:13 PM 46.4 °F 41.5 °F 23.0 °F 40% 30.09 in 10.0 mi WNW 10.4 mph 16.1 mph N/A   Overcast
2:33 PM 46.4 °F 39.8 °F 23.0 °F 40% 30.09 in 10.0 mi West 16.1 mph 19.6 mph N/A   Overcast
2:53 PM 46.4 °F 41.1 °F 21.2 °F 37% 30.09 in 10.0 mi WNW 11.5 mph - N/A   Overcast
3:13 PM 46.4 °F 40.1 °F 21.2 °F 37% 30.09 in 10.0 mi West 15.0 mph - N/A   Overcast
3:33 PM 44.6 °F 38.1 °F 21.2 °F 39% 30.10 in 10.0 mi West 13.8 mph 17.3 mph N/A   Overcast
3:54 PM 44.6 °F 38.4 °F 23.0 °F 43% 30.10 in 10.0 mi West 12.7 mph - N/A   Overcast
4:13 PM 44.6 °F 39.2 °F 24.8 °F 46% 30.09 in 10.0 mi WSW 10.4 mph - N/A   Overcast
4:33 PM 42.8 °F 37.5 °F 24.8 °F 49% 30.09 in 10.0 mi West 9.2 mph - N/A   Overcast
4:53 PM 41.0 °F 35.8 °F 24.8 °F 53% 30.09 in 10.0 mi WSW 8.1 mph - N/A   Overcast
5:14 PM 39.2 °F 34.2 °F 24.8 °F 56% 30.09 in 10.0 mi SW 6.9 mph - N/A   Overcast
5:33 PM 37.4 °F 32.1 °F 26.6 °F 65% 30.09 in 10.0 mi SW 6.9 mph - N/A   Overcast
5:53 PM 39.2 °F 35.9 °F 26.6 °F 61% 30.10 in 10.0 mi SSW 4.6 mph - N/A   Overcast
6:13 PM 39.2 °F 35.0 °F 26.6 °F 61% 30.10 in 10.0 mi SSW 5.8 mph - N/A   Overcast
6:34 PM 37.4 °F 30.3 °F 26.6 °F 65% 30.12 in 10.0 mi WSW 10.4 mph - N/A   Mostly Cloudy
6:53 PM 35.6 °F 28.0 °F 26.6 °F 70% 30.13 in 10.0 mi WSW 10.4 mph - N/A   Mostly Cloudy
7:14 PM 35.6 °F 27.1 °F 26.6 °F 70% 30.14 in 10.0 mi WSW 12.7 mph - N/A   Scattered Clouds
7:33 PM 33.8 °F 24.8 °F 26.6 °F 75% 30.14 in 10.0 mi WSW 12.7 mph - N/A   Clear
7:54 PM 33.8 °F 24.8 °F 26.6 °F 75% 30.14 in 10.0 mi WSW 12.7 mph - N/A   Clear
8:13 PM 32.0 °F 24.2 °F 26.6 °F 80% 30.14 in 10.0 mi WSW 9.2 mph - N/A   Mostly Cloudy
8:33 PM 30.2 °F 22.6 °F 26.6 °F 86% 30.14 in 10.0 mi WSW 8.1 mph - N/A   Scattered Clouds
8:54 PM 28.4 °F 20.4 °F 26.6 °F 93% 30.14 in 10.0 mi WSW 8.1 mph - N/A   Clear
9:14 PM 28.4 °F 19.7 °F 26.6 °F 93% 30.15 in 10.0 mi WSW 9.2 mph - N/A   Clear
9:34 PM 28.4 °F 19.7 °F 26.6 °F 93% 30.15 in 10.0 mi WSW 9.2 mph - N/A   Clear
9:53 PM 28.4 °F 20.4 °F 26.6 °F 93% 30.16 in 10.0 mi WSW 8.1 mph - N/A   Clear
10:13 PM 28.4 °F 21.2 °F 26.6 °F 93% 30.16 in 10.0 mi WSW 6.9 mph - N/A   Clear
10:33 PM 28.4 °F 23.3 °F 24.8 °F 86% 30.16 in 10.0 mi SW 4.6 mph - N/A   Clear
10:53 PM 26.6 °F 20.0 °F 24.8 °F 93% 30.16 in 10.0 mi SW 5.8 mph - N/A   Clear
11:13 PM 26.6 °F 20.0 °F 24.8 °F 93% 30.16 in 10.0 mi WSW 5.8 mph - N/A   Clear
11:33 PM 26.6 °F 21.2 °F 24.8 °F 93% 30.16 in 10.0 mi WSW 4.6 mph - N/A   Clear
11:53 PM 24.8 °F 17.9 °F 24.8 °F 100% 30.16 in 10.0 mi WSW 5.8 mph - N/A   Clear